sensor_id;sensor_type;location;lat;lon;timestamp;temperature;humidity
5960;DHT22;3006;50.956;7.002;2024-01-30T00:00:42;7.50;90.00
5960;DHT22;3006;50.956;7.002;2024-01-30T00:03:10;7.50;89.80
5960;DHT22;3006;50.956;7.002;2024-01-30T00:05:38;7.60;89.70
5960;DHT22;3006;50.956;7.002;2024-01-30T00:08:06;7.50;89.80
5960;DHT22;3006;50.956;7.002;2024-01-30T00:10:34;7.50;89.90
5960;DHT22;3006;50.956;7.002;2024-01-30T00:13:04;7.50;90.10
5960;DHT22;3006;50.956;7.002;2024-01-30T00:15:32;7.40;90.30
5960;DHT22;3006;50.956;7.002;2024-01-30T00:18:01;7.50;90.10
5960;DHT22;3006;50.956;7.002;2024-01-30T00:20:29;7.50;90.20
5960;DHT22;3006;50.956;7.002;2024-01-30T00:22:58;7.50;90.20
5960;DHT22;3006;50.956;7.002;2024-01-30T00:25:26;7.40;90.30
5960;DHT22;3006;50.956;7.002;2024-01-30T00:27:54;7.40;90.30
5960;DHT22;3006;50.956;7.002;2024-01-30T00:30:23;7.40;90.50
5960;DHT22;3006;50.956;7.002;2024-01-30T00:32:51;7.40;90.40
5960;DHT22;3006;50.956;7.002;2024-01-30T00:35:20;7.30;90.50
5960;DHT22;3006;50.956;7.002;2024-01-30T00:37:49;7.30;90.60
5960;DHT22;3006;50.956;7.002;2024-01-30T00:40:17;7.30;90.50
5960;DHT22;3006;50.956;7.002;2024-01-30T00:42:45;7.40;90.50
5960;DHT22;3006;50.956;7.002;2024-01-30T00:45:14;7.30;90.70
5960;DHT22;3006;50.956;7.002;2024-01-30T00:47:43;7.40;90.30
5960;DHT22;3006;50.956;7.002;2024-01-30T00:50:11;7.30;90.60
5960;DHT22;3006;50.956;7.002;2024-01-30T00:52:40;7.20;90.80
5960;DHT22;3006;50.956;7.002;2024-01-30T00:55:09;7.20;91.00
5960;DHT22;3006;50.956;7.002;2024-01-30T00:57:38;7.20;90.80
5960;DHT22;3006;50.956;7.002;2024-01-30T01:00:08;7.20;91.00
5960;DHT22;3006;50.956;7.002;2024-01-30T01:02:36;7.20;90.80
5960;DHT22;3006;50.956;7.002;2024-01-30T01:05:07;7.20;90.80
5960;DHT22;3006;50.956;7.002;2024-01-30T01:07:35;7.20;90.80
5960;DHT22;3006;50.956;7.002;2024-01-30T01:10:04;7.20;90.80
5960;DHT22;3006;50.956;7.002;2024-01-30T01:12:33;7.20;90.90
5960;DHT22;3006;50.956;7.002;2024-01-30T01:15:01;7.20;91.00
5960;DHT22;3006;50.956;7.002;2024-01-30T01:17:29;7.20;91.00
5960;DHT22;3006;50.956;7.002;2024-01-30T01:19:58;7.20;90.90
5960;DHT22;3006;50.956;7.002;2024-01-30T01:22:28;7.20;90.80
5960;DHT22;3006;50.956;7.002;2024-01-30T01:24:56;7.20;90.90
5960;DHT22;3006;50.956;7.002;2024-01-30T01:27:24;7.20;90.90
5960;DHT22;3006;50.956;7.002;2024-01-30T01:29:52;7.20;90.90
5960;DHT22;3006;50.956;7.002;2024-01-30T01:32:20;7.20;91.20
5960;DHT22;3006;50.956;7.002;2024-01-30T01:34:49;7.20;91.00
5960;DHT22;3006;50.956;7.002;2024-01-30T01:37:17;7.20;90.90
5960;DHT22;3006;50.956;7.002;2024-01-30T01:39:47;7.20;90.70
5960;DHT22;3006;50.956;7.002;2024-01-30T01:42:15;7.30;90.70
5960;DHT22;3006;50.956;7.002;2024-01-30T01:44:43;7.30;90.70
5960;DHT22;3006;50.956;7.002;2024-01-30T01:47:11;7.30;90.70
5960;DHT22;3006;50.956;7.002;2024-01-30T01:49:39;7.20;90.80
5960;DHT22;3006;50.956;7.002;2024-01-30T01:52:09;7.20;90.90
5960;DHT22;3006;50.956;7.002;2024-01-30T01:54:37;7.30;90.70
5960;DHT22;3006;50.956;7.002;2024-01-30T01:57:07;7.20;90.80
5960;DHT22;3006;50.956;7.002;2024-01-30T01:59:35;7.20;91.00
5960;DHT22;3006;50.956;7.002;2024-01-30T02:02:04;7.20;91.00
5960;DHT22;3006;50.956;7.002;2024-01-30T02:04:34;7.20;90.90
5960;DHT22;3006;50.956;7.002;2024-01-30T02:07:03;7.20;91.00
5960;DHT22;3006;50.956;7.002;2024-01-30T02:09:31;7.20;90.90
5960;DHT22;3006;50.956;7.002;2024-01-30T02:11:59;7.20;90.90
5960;DHT22;3006;50.956;7.002;2024-01-30T02:14:29;7.30;90.70
5960;DHT22;3006;50.956;7.002;2024-01-30T02:16:57;7.20;90.80
5960;DHT22;3006;50.956;7.002;2024-01-30T02:19:25;7.20;90.80
5960;DHT22;3006;50.956;7.002;2024-01-30T02:21:55;7.20;90.90
5960;DHT22;3006;50.956;7.002;2024-01-30T02:24:23;7.20;90.90
5960;DHT22;3006;50.956;7.002;2024-01-30T02:26:51;7.20;91.00
5960;DHT22;3006;50.956;7.002;2024-01-30T02:29:19;7.20;90.80
5960;DHT22;3006;50.956;7.002;2024-01-30T02:31:48;7.30;90.70
5960;DHT22;3006;50.956;7.002;2024-01-30T02:34:16;7.30;90.80
5960;DHT22;3006;50.956;7.002;2024-01-30T02:36:46;7.20;90.70
5960;DHT22;3006;50.956;7.002;2024-01-30T02:39:15;7.20;90.90
5960;DHT22;3006;50.956;7.002;2024-01-30T02:41:43;7.30;90.70
5960;DHT22;3006;50.956;7.002;2024-01-30T02:44:11;7.30;90.50
5960;DHT22;3006;50.956;7.002;2024-01-30T02:46:39;7.40;90.50
5960;DHT22;3006;50.956;7.002;2024-01-30T02:49:07;7.40;90.30
5960;DHT22;3006;50.956;7.002;2024-01-30T02:51:36;7.40;90.40
5960;DHT22;3006;50.956;7.002;2024-01-30T02:54:04;7.30;90.60
5960;DHT22;3006;50.956;7.002;2024-01-30T02:56:33;7.30;90.50
5960;DHT22;3006;50.956;7.002;2024-01-30T02:59:02;7.40;90.40
5960;DHT22;3006;50.956;7.002;2024-01-30T03:01:30;7.30;90.40
5960;DHT22;3006;50.956;7.002;2024-01-30T03:03:58;7.40;90.50
5960;DHT22;3006;50.956;7.002;2024-01-30T03:06:27;7.30;90.60
5960;DHT22;3006;50.956;7.002;2024-01-30T03:08:55;7.20;90.70
5960;DHT22;3006;50.956;7.002;2024-01-30T03:11:23;7.30;90.70
5960;DHT22;3006;50.956;7.002;2024-01-30T03:13:52;7.40;90.50
5960;DHT22;3006;50.956;7.002;2024-01-30T03:16:20;7.30;90.60
5960;DHT22;3006;50.956;7.002;2024-01-30T03:18:49;7.30;90.60
5960;DHT22;3006;50.956;7.002;2024-01-30T03:21:17;7.30;90.60
5960;DHT22;3006;50.956;7.002;2024-01-30T03:23:45;7.30;90.70
5960;DHT22;3006;50.956;7.002;2024-01-30T03:26:13;7.30;90.70
5960;DHT22;3006;50.956;7.002;2024-01-30T03:28:42;7.40;90.60
5960;DHT22;3006;50.956;7.002;2024-01-30T03:31:15;7.30;90.70
5960;DHT22;3006;50.956;7.002;2024-01-30T03:33:43;7.30;90.70
5960;DHT22;3006;50.956;7.002;2024-01-30T03:36:12;7.40;90.50
5960;DHT22;3006;50.956;7.002;2024-01-30T03:38:40;7.40;90.50
5960;DHT22;3006;50.956;7.002;2024-01-30T03:41:08;7.30;90.70
5960;DHT22;3006;50.956;7.002;2024-01-30T03:43:36;7.40;90.40
5960;DHT22;3006;50.956;7.002;2024-01-30T03:46:05;7.40;90.30
5960;DHT22;3006;50.956;7.002;2024-01-30T03:48:34;7.40;90.40
5960;DHT22;3006;50.956;7.002;2024-01-30T03:51:02;7.40;90.50
5960;DHT22;3006;50.956;7.002;2024-01-30T03:53:31;7.40;90.50
5960;DHT22;3006;50.956;7.002;2024-01-30T03:55:59;7.40;90.50
5960;DHT22;3006;50.956;7.002;2024-01-30T03:58:27;7.40;90.20
5960;DHT22;3006;50.956;7.002;2024-01-30T04:00:55;7.40;90.20
5960;DHT22;3006;50.956;7.002;2024-01-30T04:03:24;7.40;90.60
5960;DHT22;3006;50.956;7.002;2024-01-30T04:05:53;7.40;90.60
5960;DHT22;3006;50.956;7.002;2024-01-30T04:08:21;7.40;90.70
5960;DHT22;3006;50.956;7.002;2024-01-30T04:10:50;7.30;90.80
5960;DHT22;3006;50.956;7.002;2024-01-30T04:13:18;7.20;91.00
5960;DHT22;3006;50.956;7.002;2024-01-30T04:15:46;7.30;90.90
5960;DHT22;3006;50.956;7.002;2024-01-30T04:18:14;7.20;90.90
5960;DHT22;3006;50.956;7.002;2024-01-30T04:20:42;7.20;91.00
5960;DHT22;3006;50.956;7.002;2024-01-30T04:23:12;7.30;91.00
5960;DHT22;3006;50.956;7.002;2024-01-30T04:25:40;7.20;91.00
5960;DHT22;3006;50.956;7.002;2024-01-30T04:28:08;7.20;91.10
5960;DHT22;3006;50.956;7.002;2024-01-30T04:30:36;7.20;91.10
5960;DHT22;3006;50.956;7.002;2024-01-30T04:33:05;7.20;91.10
5960;DHT22;3006;50.956;7.002;2024-01-30T04:35:33;7.20;91.10
5960;DHT22;3006;50.956;7.002;2024-01-30T04:38:01;7.20;91.30
5960;DHT22;3006;50.956;7.002;2024-01-30T04:40:31;7.20;91.50
5960;DHT22;3006;50.956;7.002;2024-01-30T04:42:59;7.20;91.00
5960;DHT22;3006;50.956;7.002;2024-01-30T04:45:27;7.20;91.00
5960;DHT22;3006;50.956;7.002;2024-01-30T04:47:55;7.20;91.10
5960;DHT22;3006;50.956;7.002;2024-01-30T04:50:24;7.20;91.20
5960;DHT22;3006;50.956;7.002;2024-01-30T04:52:53;7.20;91.50
5960;DHT22;3006;50.956;7.002;2024-01-30T04:55:21;7.10;91.50
5960;DHT22;3006;50.956;7.002;2024-01-30T04:57:51;7.10;91.60
5960;DHT22;3006;50.956;7.002;2024-01-30T05:00:19;7.00;91.70
5960;DHT22;3006;50.956;7.002;2024-01-30T05:02:47;7.00;91.80
5960;DHT22;3006;50.956;7.002;2024-01-30T05:05:15;7.00;91.60
5960;DHT22;3006;50.956;7.002;2024-01-30T05:07:44;7.00;92.10
5960;DHT22;3006;50.956;7.002;2024-01-30T05:10:12;7.00;91.90
5960;DHT22;3006;50.956;7.002;2024-01-30T05:12:40;7.00;92.20
5960;DHT22;3006;50.956;7.002;2024-01-30T05:15:10;7.00;92.10
5960;DHT22;3006;50.956;7.002;2024-01-30T05:17:38;7.00;92.30
5960;DHT22;3006;50.956;7.002;2024-01-30T05:20:07;7.00;92.10
5960;DHT22;3006;50.956;7.002;2024-01-30T05:22:37;6.90;92.30
5960;DHT22;3006;50.956;7.002;2024-01-30T05:25:12;6.90;92.40
5960;DHT22;3006;50.956;7.002;2024-01-30T05:27:40;6.80;92.60
5960;DHT22;3006;50.956;7.002;2024-01-30T05:30:11;6.80;92.70
5960;DHT22;3006;50.956;7.002;2024-01-30T05:32:39;6.90;92.30
5960;DHT22;3006;50.956;7.002;2024-01-30T05:35:08;6.90;92.40
5960;DHT22;3006;50.956;7.002;2024-01-30T05:37:36;6.90;92.30
5960;DHT22;3006;50.956;7.002;2024-01-30T05:40:05;6.90;92.00
5960;DHT22;3006;50.956;7.002;2024-01-30T05:42:33;6.90;92.10
5960;DHT22;3006;50.956;7.002;2024-01-30T05:45:01;6.90;92.30
5960;DHT22;3006;50.956;7.002;2024-01-30T05:47:31;6.80;92.30
5960;DHT22;3006;50.956;7.002;2024-01-30T05:49:59;6.80;92.40
5960;DHT22;3006;50.956;7.002;2024-01-30T05:52:27;6.80;92.50
5960;DHT22;3006;50.956;7.002;2024-01-30T05:54:55;6.80;92.50
5960;DHT22;3006;50.956;7.002;2024-01-30T05:57:23;6.80;92.50
5960;DHT22;3006;50.956;7.002;2024-01-30T05:59:52;6.80;92.50
5960;DHT22;3006;50.956;7.002;2024-01-30T06:02:20;6.80;92.60
5960;DHT22;3006;50.956;7.002;2024-01-30T06:04:50;6.90;92.40
5960;DHT22;3006;50.956;7.002;2024-01-30T06:07:18;6.90;92.20
5960;DHT22;3006;50.956;7.002;2024-01-30T06:09:46;6.90;92.20
5960;DHT22;3006;50.956;7.002;2024-01-30T06:12:15;6.90;92.40
5960;DHT22;3006;50.956;7.002;2024-01-30T06:14:43;6.90;92.30
5960;DHT22;3006;50.956;7.002;2024-01-30T06:17:13;6.90;92.60
5960;DHT22;3006;50.956;7.002;2024-01-30T06:19:42;8.80;91.20
5960;DHT22;3006;50.956;7.002;2024-01-30T06:22:11;8.70;87.10
5960;DHT22;3006;50.956;7.002;2024-01-30T06:24:39;9.70;84.70
5960;DHT22;3006;50.956;7.002;2024-01-30T06:27:07;10.80;76.90
5960;DHT22;3006;50.956;7.002;2024-01-30T06:29:36;10.90;75.80
5960;DHT22;3006;50.956;7.002;2024-01-30T06:32:05;11.20;73.50
5960;DHT22;3006;50.956;7.002;2024-01-30T06:34:33;11.10;73.70
5960;DHT22;3006;50.956;7.002;2024-01-30T06:37:02;10.50;74.30
5960;DHT22;3006;50.956;7.002;2024-01-30T06:39:31;10.90;73.90
5960;DHT22;3006;50.956;7.002;2024-01-30T06:41:59;10.80;74.00
5960;DHT22;3006;50.956;7.002;2024-01-30T06:44:27;10.60;75.00
5960;DHT22;3006;50.956;7.002;2024-01-30T06:46:59;10.30;76.50
5960;DHT22;3006;50.956;7.002;2024-01-30T06:49:27;10.40;76.00
5960;DHT22;3006;50.956;7.002;2024-01-30T06:51:55;10.70;74.60
5960;DHT22;3006;50.956;7.002;2024-01-30T06:54:24;10.90;73.70
5960;DHT22;3006;50.956;7.002;2024-01-30T06:56:53;11.00;72.90
5960;DHT22;3006;50.956;7.002;2024-01-30T06:59:21;9.50;77.00
5960;DHT22;3006;50.956;7.002;2024-01-30T07:01:49;8.10;83.40
5960;DHT22;3006;50.956;7.002;2024-01-30T07:04:18;7.60;86.90
5960;DHT22;3006;50.956;7.002;2024-01-30T07:06:46;7.40;88.40
5960;DHT22;3006;50.956;7.002;2024-01-30T07:09:14;7.40;89.00
5960;DHT22;3006;50.956;7.002;2024-01-30T07:11:42;7.40;89.20
5960;DHT22;3006;50.956;7.002;2024-01-30T07:14:12;7.20;89.80
5960;DHT22;3006;50.956;7.002;2024-01-30T07:16:40;7.20;90.10
5960;DHT22;3006;50.956;7.002;2024-01-30T07:19:08;7.20;90.70
5960;DHT22;3006;50.956;7.002;2024-01-30T07:21:37;7.20;91.00
5960;DHT22;3006;50.956;7.002;2024-01-30T07:24:07;7.20;91.20
5960;DHT22;3006;50.956;7.002;2024-01-30T07:26:35;7.10;91.70
5960;DHT22;3006;50.956;7.002;2024-01-30T07:29:03;7.20;92.00
5960;DHT22;3006;50.956;7.002;2024-01-30T07:31:33;7.20;92.20
5960;DHT22;3006;50.956;7.002;2024-01-30T07:34:01;7.20;92.20
5960;DHT22;3006;50.956;7.002;2024-01-30T07:36:31;7.30;92.00
5960;DHT22;3006;50.956;7.002;2024-01-30T07:38:59;7.30;92.40
5960;DHT22;3006;50.956;7.002;2024-01-30T07:41:27;7.30;92.30
5960;DHT22;3006;50.956;7.002;2024-01-30T07:43:55;7.20;92.50
5960;DHT22;3006;50.956;7.002;2024-01-30T07:46:23;7.30;92.60
5960;DHT22;3006;50.956;7.002;2024-01-30T07:48:53;7.30;92.50
5960;DHT22;3006;50.956;7.002;2024-01-30T07:51:23;7.30;92.60
5960;DHT22;3006;50.956;7.002;2024-01-30T07:53:52;7.20;92.80
5960;DHT22;3006;50.956;7.002;2024-01-30T07:56:20;7.30;92.50
5960;DHT22;3006;50.956;7.002;2024-01-30T07:58:48;7.40;92.50
5960;DHT22;3006;50.956;7.002;2024-01-30T08:01:16;7.40;92.60
5960;DHT22;3006;50.956;7.002;2024-01-30T08:03:44;7.40;92.50
5960;DHT22;3006;50.956;7.002;2024-01-30T08:06:14;7.40;92.30
5960;DHT22;3006;50.956;7.002;2024-01-30T08:08:42;7.50;92.30
5960;DHT22;3006;50.956;7.002;2024-01-30T08:11:10;7.50;92.10
5960;DHT22;3006;50.956;7.002;2024-01-30T08:13:38;7.50;92.10
5960;DHT22;3006;50.956;7.002;2024-01-30T08:16:07;7.50;92.20
5960;DHT22;3006;50.956;7.002;2024-01-30T08:18:39;7.50;91.90
5960;DHT22;3006;50.956;7.002;2024-01-30T08:21:07;7.60;91.90
5960;DHT22;3006;50.956;7.002;2024-01-30T08:23:38;7.70;91.70
5960;DHT22;3006;50.956;7.002;2024-01-30T08:26:06;7.70;91.50
5960;DHT22;3006;50.956;7.002;2024-01-30T08:28:34;7.70;91.60
5960;DHT22;3006;50.956;7.002;2024-01-30T08:31:02;7.60;91.90
5960;DHT22;3006;50.956;7.002;2024-01-30T08:33:30;7.70;91.80
5960;DHT22;3006;50.956;7.002;2024-01-30T08:35:58;7.80;91.80
5960;DHT22;3006;50.956;7.002;2024-01-30T08:38:27;7.80;91.80
5960;DHT22;3006;50.956;7.002;2024-01-30T08:40:56;7.70;92.10
5960;DHT22;3006;50.956;7.002;2024-01-30T08:43:25;7.80;92.00
5960;DHT22;3006;50.956;7.002;2024-01-30T08:45:54;7.80;92.10
5960;DHT22;3006;50.956;7.002;2024-01-30T08:48:24;7.90;91.80
5960;DHT22;3006;50.956;7.002;2024-01-30T08:50:52;8.00;91.50
5960;DHT22;3006;50.956;7.002;2024-01-30T08:53:20;8.00;91.40
5960;DHT22;3006;50.956;7.002;2024-01-30T08:55:48;8.00;91.20
5960;DHT22;3006;50.956;7.002;2024-01-30T08:58:18;8.00;91.20
5960;DHT22;3006;50.956;7.002;2024-01-30T09:00:46;8.00;91.20
5960;DHT22;3006;50.956;7.002;2024-01-30T09:03:15;8.00;91.10
5960;DHT22;3006;50.956;7.002;2024-01-30T09:05:43;8.00;91.20
5960;DHT22;3006;50.956;7.002;2024-01-30T09:08:11;8.10;91.30
5960;DHT22;3006;50.956;7.002;2024-01-30T09:10:39;8.10;91.10
5960;DHT22;3006;50.956;7.002;2024-01-30T09:13:08;8.20;91.00
5960;DHT22;3006;50.956;7.002;2024-01-30T09:15:37;8.20;90.80
5960;DHT22;3006;50.956;7.002;2024-01-30T09:18:06;8.30;90.60
5960;DHT22;3006;50.956;7.002;2024-01-30T09:20:34;8.40;90.50
5960;DHT22;3006;50.956;7.002;2024-01-30T09:23:02;8.40;90.30
5960;DHT22;3006;50.956;7.002;2024-01-30T09:25:31;8.50;90.00
5960;DHT22;3006;50.956;7.002;2024-01-30T09:27:59;8.40;90.10
5960;DHT22;3006;50.956;7.002;2024-01-30T09:30:27;8.40;90.30
5960;DHT22;3006;50.956;7.002;2024-01-30T09:32:57;8.50;90.00
5960;DHT22;3006;50.956;7.002;2024-01-30T09:35:25;8.50;89.90
5960;DHT22;3006;50.956;7.002;2024-01-30T09:37:53;8.60;89.70
5960;DHT22;3006;50.956;7.002;2024-01-30T09:40:22;8.60;89.70
5960;DHT22;3006;50.956;7.002;2024-01-30T09:42:51;8.70;89.30
5960;DHT22;3006;50.956;7.002;2024-01-30T09:45:19;8.80;89.10
5960;DHT22;3006;50.956;7.002;2024-01-30T09:47:47;8.80;89.10
5960;DHT22;3006;50.956;7.002;2024-01-30T09:50:17;8.90;88.70
5960;DHT22;3006;50.956;7.002;2024-01-30T09:52:46;8.90;88.70
5960;DHT22;3006;50.956;7.002;2024-01-30T09:55:15;8.90;88.90
5960;DHT22;3006;50.956;7.002;2024-01-30T09:57:43;9.00;88.50
5960;DHT22;3006;50.956;7.002;2024-01-30T10:00:13;9.10;88.20
5960;DHT22;3006;50.956;7.002;2024-01-30T10:02:41;9.20;88.10
5960;DHT22;3006;50.956;7.002;2024-01-30T10:05:10;9.20;88.00
5960;DHT22;3006;50.956;7.002;2024-01-30T10:07:53;9.20;87.90
5960;DHT22;3006;50.956;7.002;2024-01-30T10:10:22;9.30;87.30
5960;DHT22;3006;50.956;7.002;2024-01-30T10:12:51;9.40;87.10
5960;DHT22;3006;50.956;7.002;2024-01-30T10:15:19;9.40;86.90
5960;DHT22;3006;50.956;7.002;2024-01-30T10:17:47;9.40;86.80
5960;DHT22;3006;50.956;7.002;2024-01-30T10:20:15;9.50;86.50
5960;DHT22;3006;50.956;7.002;2024-01-30T10:22:45;9.50;86.30
5960;DHT22;3006;50.956;7.002;2024-01-30T10:25:15;9.50;86.30
5960;DHT22;3006;50.956;7.002;2024-01-30T10:27:43;9.50;86.50
5960;DHT22;3006;50.956;7.002;2024-01-30T10:30:12;9.60;86.30
5960;DHT22;3006;50.956;7.002;2024-01-30T10:32:41;9.60;86.30
5960;DHT22;3006;50.956;7.002;2024-01-30T10:35:09;9.50;86.40
5960;DHT22;3006;50.956;7.002;2024-01-30T10:37:37;9.60;86.10
5960;DHT22;3006;50.956;7.002;2024-01-30T10:40:07;9.60;86.00
5960;DHT22;3006;50.956;7.002;2024-01-30T10:42:42;9.60;85.90
5960;DHT22;3006;50.956;7.002;2024-01-30T10:45:11;9.70;86.10
5960;DHT22;3006;50.956;7.002;2024-01-30T10:47:42;9.70;86.00
5960;DHT22;3006;50.956;7.002;2024-01-30T10:50:11;9.70;86.30
5960;DHT22;3006;50.956;7.002;2024-01-30T10:52:41;9.80;86.40
5960;DHT22;3006;50.956;7.002;2024-01-30T10:55:10;9.80;86.20
5960;DHT22;3006;50.956;7.002;2024-01-30T10:57:40;9.90;86.10
5960;DHT22;3006;50.956;7.002;2024-01-30T11:00:10;10.00;85.80
5960;DHT22;3006;50.956;7.002;2024-01-30T11:02:41;10.00;85.70
5960;DHT22;3006;50.956;7.002;2024-01-30T11:05:10;10.00;85.40
5960;DHT22;3006;50.956;7.002;2024-01-30T11:07:39;10.10;85.20
5960;DHT22;3006;50.956;7.002;2024-01-30T11:10:08;10.10;85.30
5960;DHT22;3006;50.956;7.002;2024-01-30T11:12:41;10.10;85.30
5960;DHT22;3006;50.956;7.002;2024-01-30T11:15:12;10.10;85.50
5960;DHT22;3006;50.956;7.002;2024-01-30T11:17:42;10.10;85.30
5960;DHT22;3006;50.956;7.002;2024-01-30T11:20:11;10.20;85.20
5960;DHT22;3006;50.956;7.002;2024-01-30T11:22:42;10.20;85.20
5960;DHT22;3006;50.956;7.002;2024-01-30T11:25:13;10.30;84.90
5960;DHT22;3006;50.956;7.002;2024-01-30T11:27:43;10.40;84.90
5960;DHT22;3006;50.956;7.002;2024-01-30T11:30:21;10.50;84.70
5960;DHT22;3006;50.956;7.002;2024-01-30T11:33:02;10.60;84.40
5960;DHT22;3006;50.956;7.002;2024-01-30T11:35:34;10.60;84.50
5960;DHT22;3006;50.956;7.002;2024-01-30T11:38:03;10.60;84.20
5960;DHT22;3006;50.956;7.002;2024-01-30T11:40:33;10.70;84.00
5960;DHT22;3006;50.956;7.002;2024-01-30T11:43:04;10.70;83.80
5960;DHT22;3006;50.956;7.002;2024-01-30T11:45:33;10.70;83.80
5960;DHT22;3006;50.956;7.002;2024-01-30T11:48:02;10.80;83.60
5960;DHT22;3006;50.956;7.002;2024-01-30T11:50:32;10.90;83.40
5960;DHT22;3006;50.956;7.002;2024-01-30T11:53:01;10.90;83.50
5960;DHT22;3006;50.956;7.002;2024-01-30T11:55:30;10.90;83.50
5960;DHT22;3006;50.956;7.002;2024-01-30T11:58:03;10.90;83.50
5960;DHT22;3006;50.956;7.002;2024-01-30T12:00:32;10.90;83.60
5960;DHT22;3006;50.956;7.002;2024-01-30T12:03:03;10.90;83.70
5960;DHT22;3006;50.956;7.002;2024-01-30T12:05:33;11.00;83.20
5960;DHT22;3006;50.956;7.002;2024-01-30T12:08:03;11.00;83.20
5960;DHT22;3006;50.956;7.002;2024-01-30T12:10:31;11.00;83.40
5960;DHT22;3006;50.956;7.002;2024-01-30T12:13:00;11.00;83.30
5960;DHT22;3006;50.956;7.002;2024-01-30T12:15:31;11.00;83.40
5960;DHT22;3006;50.956;7.002;2024-01-30T12:18:06;11.00;83.00
5960;DHT22;3006;50.956;7.002;2024-01-30T12:20:35;11.00;82.90
5960;DHT22;3006;50.956;7.002;2024-01-30T12:23:03;11.00;82.90
5960;DHT22;3006;50.956;7.002;2024-01-30T12:25:31;11.10;83.20
5960;DHT22;3006;50.956;7.002;2024-01-30T12:28:00;11.00;83.50
5960;DHT22;3006;50.956;7.002;2024-01-30T12:30:28;11.10;83.10
5960;DHT22;3006;50.956;7.002;2024-01-30T12:32:58;11.10;83.00
5960;DHT22;3006;50.956;7.002;2024-01-30T12:35:27;11.10;83.00
5960;DHT22;3006;50.956;7.002;2024-01-30T12:37:59;11.30;82.60
5960;DHT22;3006;50.956;7.002;2024-01-30T12:40:27;11.30;82.60
5960;DHT22;3006;50.956;7.002;2024-01-30T12:42:56;11.30;82.60
5960;DHT22;3006;50.956;7.002;2024-01-30T12:45:25;11.30;82.80
5960;DHT22;3006;50.956;7.002;2024-01-30T12:47:53;11.30;82.60
5960;DHT22;3006;50.956;7.002;2024-01-30T12:50:23;11.30;82.80
5960;DHT22;3006;50.956;7.002;2024-01-30T12:52:52;11.40;82.50
5960;DHT22;3006;50.956;7.002;2024-01-30T12:55:20;11.50;82.50
5960;DHT22;3006;50.956;7.002;2024-01-30T12:57:48;11.50;82.00
5960;DHT22;3006;50.956;7.002;2024-01-30T13:00:17;11.60;81.40
5960;DHT22;3006;50.956;7.002;2024-01-30T13:02:45;11.60;81.50
5960;DHT22;3006;50.956;7.002;2024-01-30T13:05:13;11.60;81.50
5960;DHT22;3006;50.956;7.002;2024-01-30T13:07:43;11.50;81.60
5960;DHT22;3006;50.956;7.002;2024-01-30T13:10:11;11.50;81.60
5960;DHT22;3006;50.956;7.002;2024-01-30T13:12:40;11.50;81.70
5960;DHT22;3006;50.956;7.002;2024-01-30T13:15:09;11.70;81.60
5960;DHT22;3006;50.956;7.002;2024-01-30T13:17:38;11.70;81.30
5960;DHT22;3006;50.956;7.002;2024-01-30T13:20:07;11.70;81.20
5960;DHT22;3006;50.956;7.002;2024-01-30T13:22:38;11.70;81.00
5960;DHT22;3006;50.956;7.002;2024-01-30T13:25:08;11.70;80.70
5960;DHT22;3006;50.956;7.002;2024-01-30T13:27:37;11.60;80.80
5960;DHT22;3006;50.956;7.002;2024-01-30T13:30:07;11.50;80.70
5960;DHT22;3006;50.956;7.002;2024-01-30T13:32:36;11.50;81.10
5960;DHT22;3006;50.956;7.002;2024-01-30T13:35:05;11.50;81.60
5960;DHT22;3006;50.956;7.002;2024-01-30T13:37:34;11.50;82.20
5960;DHT22;3006;50.956;7.002;2024-01-30T13:40:03;11.50;82.30
5960;DHT22;3006;50.956;7.002;2024-01-30T13:42:39;11.50;82.60
5960;DHT22;3006;50.956;7.002;2024-01-30T13:45:07;11.50;82.60
5960;DHT22;3006;50.956;7.002;2024-01-30T13:47:37;11.50;82.60
5960;DHT22;3006;50.956;7.002;2024-01-30T13:50:05;11.50;83.00
5960;DHT22;3006;50.956;7.002;2024-01-30T13:52:33;11.50;84.30
5960;DHT22;3006;50.956;7.002;2024-01-30T13:55:10;11.50;84.70
5960;DHT22;3006;50.956;7.002;2024-01-30T13:57:40;11.50;85.10
5960;DHT22;3006;50.956;7.002;2024-01-30T14:00:09;11.50;85.30
5960;DHT22;3006;50.956;7.002;2024-01-30T14:02:40;11.60;85.40
5960;DHT22;3006;50.956;7.002;2024-01-30T14:05:09;11.60;85.30
5960;DHT22;3006;50.956;7.002;2024-01-30T14:07:37;11.60;85.20
5960;DHT22;3006;50.956;7.002;2024-01-30T14:10:07;11.60;85.00
5960;DHT22;3006;50.956;7.002;2024-01-30T14:12:42;11.70;84.80
5960;DHT22;3006;50.956;7.002;2024-01-30T14:15:11;11.70;84.80
5960;DHT22;3006;50.956;7.002;2024-01-30T14:17:54;11.70;84.90
5960;DHT22;3006;50.956;7.002;2024-01-30T14:20:23;11.70;84.60
5960;DHT22;3006;50.956;7.002;2024-01-30T14:22:51;11.70;84.60
5960;DHT22;3006;50.956;7.002;2024-01-30T14:25:22;11.70;84.70
5960;DHT22;3006;50.956;7.002;2024-01-30T14:27:52;11.70;84.80
5960;DHT22;3006;50.956;7.002;2024-01-30T14:30:21;11.70;84.60
5960;DHT22;3006;50.956;7.002;2024-01-30T14:32:49;11.70;84.70
5960;DHT22;3006;50.956;7.002;2024-01-30T14:35:19;11.70;84.70
5960;DHT22;3006;50.956;7.002;2024-01-30T14:37:48;11.70;84.60
5960;DHT22;3006;50.956;7.002;2024-01-30T14:40:17;11.70;84.80
5960;DHT22;3006;50.956;7.002;2024-01-30T14:42:45;11.70;84.60
5960;DHT22;3006;50.956;7.002;2024-01-30T14:45:15;11.70;84.60
5960;DHT22;3006;50.956;7.002;2024-01-30T14:47:44;11.70;84.40
5960;DHT22;3006;50.956;7.002;2024-01-30T14:50:13;11.70;84.40
5960;DHT22;3006;50.956;7.002;2024-01-30T14:52:43;11.70;84.40
5960;DHT22;3006;50.956;7.002;2024-01-30T14:55:11;11.70;84.30
5960;DHT22;3006;50.956;7.002;2024-01-30T14:57:40;11.70;84.40
5960;DHT22;3006;50.956;7.002;2024-01-30T15:00:10;11.60;84.60
5960;DHT22;3006;50.956;7.002;2024-01-30T15:02:40;11.60;84.60
5960;DHT22;3006;50.956;7.002;2024-01-30T15:05:08;11.70;84.40
5960;DHT22;3006;50.956;7.002;2024-01-30T15:07:38;11.70;84.20
5960;DHT22;3006;50.956;7.002;2024-01-30T15:10:07;11.70;83.80
5960;DHT22;3006;50.956;7.002;2024-01-30T15:12:37;11.70;83.90
5960;DHT22;3006;50.956;7.002;2024-01-30T15:15:07;11.70;83.80
5960;DHT22;3006;50.956;7.002;2024-01-30T15:17:40;11.70;84.00
5960;DHT22;3006;50.956;7.002;2024-01-30T15:20:09;11.70;83.70
5960;DHT22;3006;50.956;7.002;2024-01-30T15:22:37;11.70;83.80
5960;DHT22;3006;50.956;7.002;2024-01-30T15:25:07;11.70;83.70
5960;DHT22;3006;50.956;7.002;2024-01-30T15:27:35;11.70;83.80
5960;DHT22;3006;50.956;7.002;2024-01-30T15:30:04;11.70;83.80
5960;DHT22;3006;50.956;7.002;2024-01-30T15:32:32;11.70;83.50
5960;DHT22;3006;50.956;7.002;2024-01-30T15:35:02;11.70;83.40
5960;DHT22;3006;50.956;7.002;2024-01-30T15:37:32;11.60;83.80
5960;DHT22;3006;50.956;7.002;2024-01-30T15:40:00;11.60;83.80
5960;DHT22;3006;50.956;7.002;2024-01-30T15:42:29;11.60;83.70
5960;DHT22;3006;50.956;7.002;2024-01-30T15:44:57;11.60;83.50
5960;DHT22;3006;50.956;7.002;2024-01-30T15:47:26;11.60;83.40
5960;DHT22;3006;50.956;7.002;2024-01-30T15:49:54;11.60;83.30
5960;DHT22;3006;50.956;7.002;2024-01-30T15:52:24;11.60;83.20
5960;DHT22;3006;50.956;7.002;2024-01-30T15:54:52;11.50;83.10
5960;DHT22;3006;50.956;7.002;2024-01-30T15:57:20;11.60;82.90
5960;DHT22;3006;50.956;7.002;2024-01-30T15:59:50;11.60;82.90
5960;DHT22;3006;50.956;7.002;2024-01-30T16:02:19;11.50;83.00
5960;DHT22;3006;50.956;7.002;2024-01-30T16:04:48;11.60;83.00
5960;DHT22;3006;50.956;7.002;2024-01-30T16:07:17;11.50;83.00
5960;DHT22;3006;50.956;7.002;2024-01-30T16:09:46;11.50;83.00
5960;DHT22;3006;50.956;7.002;2024-01-30T16:12:15;11.50;84.10
5960;DHT22;3006;50.956;7.002;2024-01-30T16:14:43;11.30;85.70
5960;DHT22;3006;50.956;7.002;2024-01-30T16:17:11;11.10;86.50
5960;DHT22;3006;50.956;7.002;2024-01-30T16:19:39;11.00;85.90
5960;DHT22;3006;50.956;7.002;2024-01-30T16:22:08;10.80;85.70